createdAt,value
2023-07-03T00:00:57.190Z,994.50
2023-07-03T00:01:58.469Z,994.49
2023-07-03T00:02:59.733Z,994.47
2023-07-03T00:04:06.889Z,994.48
2023-07-03T00:04:58.206Z,994.46
2023-07-03T00:06:01.473Z,994.48
2023-07-03T00:06:58.680Z,994.52
2023-07-03T00:08:01.897Z,994.52
2023-07-03T00:21:26.132Z,994.55
2023-07-03T00:22:25.372Z,994.54
2023-07-03T00:23:26.528Z,994.60
2023-07-03T00:24:25.704Z,994.60
2023-07-03T00:25:28.340Z,994.58
2023-07-03T00:26:26.006Z,994.62
2023-07-03T00:27:28.706Z,994.56
2023-07-03T00:28:26.322Z,994.54
2023-07-03T00:29:26.507Z,994.58
2023-07-03T00:30:26.746Z,994.61
2023-07-03T00:31:30.002Z,994.51
2023-07-03T00:32:28.168Z,994.49
2023-07-03T00:33:28.758Z,994.48
2023-07-03T00:34:28.382Z,994.47
2023-07-03T00:35:27.530Z,994.47
2023-07-03T00:36:28.812Z,994.45
2023-07-03T00:37:28.895Z,994.42
2023-07-03T00:38:30.507Z,994.48
2023-07-03T00:39:28.122Z,994.45
2023-07-03T00:40:28.291Z,994.36
2023-07-03T00:41:30.496Z,994.36
2023-07-03T00:42:28.613Z,994.33
2023-07-03T00:43:31.183Z,994.36
2023-07-03T00:44:28.834Z,994.38
2023-07-03T00:45:31.831Z,994.43
2023-07-03T00:46:29.031Z,994.45
2023-07-03T00:47:29.257Z,994.45
2023-07-03T00:48:31.215Z,994.42
2023-07-03T00:49:29.976Z,994.44
2023-07-03T00:50:31.608Z,994.46
2023-07-03T00:51:30.223Z,994.37
2023-07-03T00:52:34.866Z,994.35
2023-07-03T00:53:31.435Z,994.35
2023-07-03T00:54:33.382Z,994.33
2023-07-03T00:55:32.824Z,994.34
2023-07-03T00:56:32.729Z,994.33
2023-07-03T00:57:32.287Z,994.36
2023-07-03T00:58:33.864Z,994.37
2023-07-03T00:59:33.607Z,994.39
2023-07-03T01:00:34.271Z,994.40
2023-07-03T01:01:33.426Z,994.44
2023-07-03T01:02:32.839Z,994.41
2023-07-03T01:04:33.778Z,994.45
2023-07-03T01:05:35.786Z,994.44
2023-07-03T01:06:33.446Z,994.43
2023-07-03T01:07:33.590Z,994.42
2023-07-03T01:08:34.713Z,994.44
2023-07-03T01:09:33.838Z,994.48
2023-07-03T01:10:34.801Z,994.44
2023-07-03T01:11:34.434Z,994.46
2023-07-03T01:12:37.078Z,994.41
2023-07-03T01:13:37.166Z,994.43
2023-07-03T01:14:34.779Z,994.45
2023-07-03T01:15:35.873Z,994.40
2023-07-03T01:16:37.540Z,994.34
2023-07-03T01:17:36.451Z,994.37
2023-07-03T01:18:38.130Z,994.34
2023-07-03T01:19:35.812Z,994.41
2023-07-03T01:20:36.341Z,994.36
2023-07-03T01:21:36.032Z,994.40
2023-07-03T01:22:36.213Z,994.40
2023-07-03T01:23:36.403Z,994.31
2023-07-03T01:24:36.652Z,994.37
2023-07-03T01:25:37.750Z,994.35
2023-07-03T01:26:37.880Z,994.30
2023-07-03T01:27:37.285Z,994.34
2023-07-03T01:28:38.448Z,994.33
2023-07-03T01:29:37.663Z,994.32
2023-07-03T01:30:37.942Z,994.32
2023-07-03T01:31:40.890Z,994.38
2023-07-03T01:32:42.842Z,994.34
2023-07-03T01:33:39.541Z,994.31
2023-07-03T01:34:38.726Z,994.36
2023-07-03T01:35:38.920Z,994.41
2023-07-03T01:36:39.608Z,994.41
2023-07-03T01:37:41.738Z,994.39
2023-07-03T01:38:40.426Z,994.42
2023-07-03T01:39:39.568Z,994.42
2023-07-03T01:40:39.831Z,994.45
2023-07-03T01:41:40.040Z,994.44
2023-07-03T01:42:42.798Z,994.45
2023-07-03T01:43:42.506Z,994.40
2023-07-03T01:44:40.750Z,994.40
2023-07-03T01:45:40.983Z,994.37
2023-07-03T01:46:41.219Z,994.40
2023-07-03T01:47:41.537Z,994.37
2023-07-03T01:48:41.736Z,994.43
2023-07-03T01:49:41.996Z,994.36
2023-07-03T01:50:42.162Z,994.36
2023-07-03T01:51:44.744Z,994.34
2023-07-03T01:52:43.326Z,994.36
2023-07-03T01:53:43.558Z,994.29
2023-07-03T01:54:42.774Z,994.25
2023-07-03T01:55:45.781Z,994.28
2023-07-03T01:56:45.913Z,994.23
2023-07-03T01:57:43.116Z,994.26
2023-07-03T01:58:43.417Z,994.30
2023-07-03T01:59:43.617Z,994.34
2023-07-03T02:00:46.261Z,994.29
2023-07-03T02:01:44.043Z,994.31
2023-07-03T02:02:44.728Z,994.29
2023-07-03T02:03:46.961Z,994.29
2023-07-03T02:04:44.825Z,994.26
2023-07-03T02:05:44.969Z,994.25
2023-07-03T02:06:45.220Z,994.29
2023-07-03T02:07:46.340Z,994.28
2023-07-03T02:08:47.524Z,994.25
2023-07-03T02:09:47.492Z,994.30
2023-07-03T02:10:48.202Z,994.28
2023-07-03T02:11:46.988Z,994.22
2023-07-03T02:12:46.973Z,994.23
2023-07-03T02:13:46.452Z,994.26
2023-07-03T02:14:47.537Z,994.25
2023-07-03T02:15:48.574Z,994.28
2023-07-03T02:16:48.331Z,994.26
2023-07-03T02:17:48.036Z,994.29
2023-07-03T02:18:47.383Z,994.37
2023-07-03T02:19:50.027Z,994.35
2023-07-03T02:20:47.802Z,994.38
2023-07-03T02:21:49.460Z,994.37
2023-07-03T02:22:49.094Z,994.34
2023-07-03T02:23:50.836Z,994.35
2023-07-03T02:24:49.436Z,994.32
2023-07-03T02:25:51.283Z,994.38
2023-07-03T02:26:48.687Z,994.35
2023-07-03T02:27:48.870Z,994.37
2023-07-03T02:28:50.032Z,994.41
2023-07-03T02:29:49.212Z,994.38
2023-07-03T02:30:51.344Z,994.36
2023-07-03T02:31:50.092Z,994.41
2023-07-03T02:32:49.811Z,994.37
2023-07-03T02:33:54.271Z,994.40
2023-07-03T02:34:52.003Z,994.40
2023-07-03T02:35:50.442Z,994.43
2023-07-03T02:36:50.327Z,994.42
2023-07-03T02:37:50.470Z,994.45
2023-07-03T02:38:53.098Z,994.46
2023-07-03T02:39:51.438Z,994.45
2023-07-03T02:40:51.172Z,994.44
2023-07-03T02:41:52.261Z,994.44
2023-07-03T02:42:51.377Z,994.42
2023-07-03T02:43:52.499Z,994.39
2023-07-03T02:44:52.629Z,994.35
2023-07-03T02:45:53.575Z,994.42
2023-07-03T02:46:54.470Z,994.40
2023-07-03T02:47:54.167Z,994.42
2023-07-03T02:48:54.235Z,994.39
2023-07-03T02:49:52.408Z,994.40
2023-07-03T02:50:55.074Z,994.39
2023-07-03T02:51:53.011Z,994.31
2023-07-03T02:52:56.265Z,994.32
2023-07-03T02:53:56.491Z,994.33
2023-07-03T02:54:54.646Z,994.40
2023-07-03T02:55:53.921Z,994.41
2023-07-03T02:56:56.711Z,994.35
2023-07-03T02:57:54.359Z,994.38
2023-07-03T02:58:56.531Z,994.36
2023-07-03T02:59:55.596Z,994.42
2023-07-03T03:00:57.214Z,994.40
2023-07-03T03:01:56.989Z,994.37
2023-07-03T03:02:57.822Z,994.38
2023-07-03T03:04:03.813Z,994.36
2023-07-03T03:04:55.615Z,994.35
2023-07-03T03:05:57.266Z,994.43
2023-07-03T03:06:55.899Z,994.40
2023-07-03T03:07:56.095Z,994.35
2023-07-03T03:08:57.264Z,994.35
2023-07-03T03:09:56.395Z,994.41
2023-07-03T03:10:57.555Z,994.39
2023-07-03T03:11:56.829Z,994.36
2023-07-03T03:12:56.978Z,994.28
2023-07-03T03:13:59.907Z,994.34
2023-07-03T03:14:57.505Z,994.30
2023-07-03T03:15:57.628Z,994.25
2023-07-03T03:16:59.371Z,994.30
2023-07-03T03:18:01.138Z,994.33
2023-07-03T03:18:59.275Z,994.42
2023-07-03T03:19:59.988Z,994.40
2023-07-03T03:20:58.449Z,994.37
2023-07-03T03:21:59.611Z,994.39
2023-07-03T03:22:58.729Z,994.37
2023-07-03T03:24:01.453Z,994.40
2023-07-03T03:25:01.692Z,994.31
2023-07-03T03:25:59.419Z,994.34
2023-07-03T03:27:02.752Z,994.37
2023-07-03T03:28:00.010Z,994.34
2023-07-03T03:29:02.152Z,994.36
2023-07-03T03:30:00.376Z,994.38
2023-07-03T03:31:00.598Z,994.34
2023-07-03T03:32:03.493Z,994.37
2023-07-03T03:33:04.004Z,994.44
2023-07-03T03:35:01.419Z,994.45
2023-07-03T03:36:02.555Z,994.42
2023-07-03T03:37:03.811Z,994.46
2023-07-03T03:38:03.011Z,994.49
2023-07-03T03:39:02.397Z,994.44
2023-07-03T03:40:04.209Z,994.45
2023-07-03T03:41:03.873Z,994.43
2023-07-03T03:42:04.063Z,994.47
2023-07-03T03:43:06.277Z,994.48
2023-07-03T03:44:06.046Z,994.46
2023-07-03T03:45:06.443Z,994.45
2023-07-03T03:46:04.946Z,994.48
2023-07-03T03:47:05.475Z,994.48
2023-07-03T03:48:05.720Z,994.48
2023-07-03T03:49:05.393Z,994.51
2023-07-03T03:50:06.151Z,994.49
2023-07-03T03:51:06.267Z,994.55
2023-07-03T03:52:05.874Z,994.53
2023-07-03T03:53:05.919Z,994.49
2023-07-03T03:54:07.043Z,994.51
2023-07-03T03:55:06.739Z,994.46
2023-07-03T03:56:06.857Z,994.42
2023-07-03T03:57:07.487Z,994.45
2023-07-03T03:58:07.171Z,994.41
2023-07-03T03:59:07.900Z,994.47
2023-07-03T04:00:07.563Z,994.44
2023-07-03T04:01:08.056Z,994.41
2023-07-03T04:02:06.265Z,994.44
2023-07-03T04:03:06.493Z,994.50
2023-07-03T04:04:07.976Z,994.46
2023-07-03T04:05:07.159Z,994.51
2023-07-03T04:06:09.122Z,994.53
2023-07-03T04:07:07.763Z,994.50
2023-07-03T04:08:10.597Z,994.46
2023-07-03T04:09:09.204Z,994.49
2023-07-03T04:10:08.558Z,994.48
2023-07-03T04:11:10.152Z,994.49
2023-07-03T04:12:11.336Z,994.47
2023-07-03T04:13:08.984Z,994.49
2023-07-03T04:14:11.187Z,994.45
2023-07-03T04:15:10.267Z,994.51
2023-07-03T04:16:09.435Z,994.52
2023-07-03T04:17:10.603Z,994.50
2023-07-03T04:18:09.807Z,994.53
2023-07-03T04:19:10.160Z,994.50
2023-07-03T04:20:12.835Z,994.43
2023-07-03T04:21:12.942Z,994.46
2023-07-03T04:22:10.644Z,994.50
2023-07-03T04:23:10.811Z,994.51
2023-07-03T04:24:10.957Z,994.53
2023-07-03T04:25:11.676Z,994.51
2023-07-03T04:26:13.847Z,994.53
2023-07-03T04:27:11.518Z,994.58
2023-07-03T04:28:12.677Z,994.58
2023-07-03T04:29:14.954Z,994.62
2023-07-03T04:30:14.652Z,994.62
2023-07-03T04:31:13.333Z,994.62
2023-07-03T04:32:12.511Z,994.65
2023-07-03T04:33:12.745Z,994.69
2023-07-03T04:34:15.455Z,994.61
2023-07-03T04:35:13.159Z,994.59
2023-07-03T04:36:15.385Z,994.59
2023-07-03T04:37:13.510Z,994.52
2023-07-03T04:38:13.685Z,994.55
2023-07-03T04:39:14.937Z,994.57
2023-07-03T04:40:15.109Z,994.53
2023-07-03T04:41:14.314Z,994.54
2023-07-03T04:42:14.543Z,994.57
2023-07-03T04:43:16.611Z,994.57
2023-07-03T04:44:14.892Z,994.59
2023-07-03T04:45:16.207Z,994.60
2023-07-03T04:46:17.126Z,994.54
2023-07-03T04:47:15.880Z,994.54
2023-07-03T04:48:16.054Z,994.60
2023-07-03T04:49:18.520Z,994.62
2023-07-03T04:50:16.677Z,994.61
2023-07-03T04:51:17.928Z,994.61
2023-07-03T04:52:19.529Z,994.60
2023-07-03T04:53:18.165Z,994.63
2023-07-03T04:54:18.285Z,994.63
2023-07-03T04:55:17.506Z,994.68
2023-07-03T04:56:18.636Z,994.65
2023-07-03T04:57:18.781Z,994.72
2023-07-03T04:58:17.978Z,994.71
2023-07-03T04:59:18.189Z,994.66
2023-07-03T05:00:18.375Z,994.66
2023-07-03T05:01:18.650Z,994.68
2023-07-03T05:02:19.009Z,994.69
2023-07-03T05:03:20.265Z,994.60
2023-07-03T05:04:21.299Z,994.61
2023-07-03T05:05:19.537Z,994.60
2023-07-03T05:06:20.677Z,994.63
2023-07-03T05:07:20.020Z,994.59
2023-07-03T05:08:21.177Z,994.64
2023-07-03T05:09:21.291Z,994.61
2023-07-03T05:10:21.625Z,994.68
2023-07-03T05:11:20.792Z,994.62
2023-07-03T05:12:20.981Z,994.60
2023-07-03T05:13:23.575Z,994.68
2023-07-03T05:14:21.231Z,994.61
2023-07-03T05:15:21.437Z,994.64
2023-07-03T05:16:23.774Z,994.66
2023-07-03T05:17:21.961Z,994.66
2023-07-03T05:18:24.627Z,994.64
2023-07-03T05:19:22.252Z,994.69
2023-07-03T05:20:23.674Z,994.64
2023-07-03T05:21:23.842Z,994.66
2023-07-03T05:22:23.095Z,994.61
2023-07-03T05:23:25.864Z,994.64
2023-07-03T05:24:23.538Z,994.57
2023-07-03T05:25:23.812Z,994.60
2023-07-03T05:26:24.018Z,994.56
2023-07-03T05:27:24.281Z,994.60
2023-07-03T05:28:24.438Z,994.58
2023-07-03T05:29:25.569Z,994.60
2023-07-03T05:30:24.863Z,994.66
2023-07-03T05:31:25.102Z,994.68
2023-07-03T05:32:27.303Z,994.66
2023-07-03T05:33:27.509Z,994.60
2023-07-03T05:34:28.675Z,994.60
2023-07-03T05:35:25.886Z,994.61
2023-07-03T05:36:26.138Z,994.58
2023-07-03T05:37:27.311Z,994.57
2023-07-03T05:38:27.399Z,994.56
2023-07-03T05:39:26.560Z,994.47
2023-07-03T05:40:31.747Z,994.51
2023-07-03T05:41:29.350Z,994.57
2023-07-03T05:42:27.068Z,994.60
2023-07-03T05:43:28.470Z,994.54
2023-07-03T05:44:27.654Z,994.52
2023-07-03T05:45:30.405Z,994.57
2023-07-03T05:46:29.553Z,994.62
2023-07-03T05:47:28.518Z,994.58
2023-07-03T05:48:28.897Z,994.57
2023-07-03T05:49:28.545Z,994.62
2023-07-03T05:50:28.799Z,994.57
2023-07-03T05:51:28.957Z,994.60
2023-07-03T05:52:29.094Z,994.61
2023-07-03T05:53:31.741Z,994.58
2023-07-03T05:54:29.481Z,994.67
2023-07-03T05:55:29.682Z,994.59
2023-07-03T05:56:30.118Z,994.55
2023-07-03T05:57:30.277Z,994.55
2023-07-03T05:58:32.191Z,994.62
2023-07-03T05:59:31.847Z,994.61
2023-07-03T06:00:32.114Z,994.69
2023-07-03T06:01:31.276Z,994.64
2023-07-03T06:02:54.816Z,994.69
2023-07-03T06:03:38.606Z,994.64
2023-07-03T06:04:32.930Z,994.66
2023-07-03T06:05:32.148Z,994.69
2023-07-03T06:06:33.246Z,994.65
2023-07-03T06:07:34.454Z,994.79
2023-07-03T06:08:33.601Z,994.74
2023-07-03T06:09:34.739Z,994.81
2023-07-03T06:10:32.910Z,994.87
2023-07-03T06:11:33.059Z,994.90
2023-07-03T06:12:33.292Z,994.92
2023-07-03T06:13:36.002Z,994.94
2023-07-03T06:14:36.337Z,994.93
2023-07-03T06:15:34.994Z,994.95
2023-07-03T06:16:37.750Z,994.94
2023-07-03T06:17:37.594Z,994.90
2023-07-03T06:18:34.768Z,994.93
2023-07-03T06:19:35.865Z,995.01
2023-07-03T06:20:35.057Z,994.99
2023-07-03T06:21:35.251Z,995.00
2023-07-03T06:22:35.468Z,994.96
2023-07-03T06:23:39.077Z,994.93
2023-07-03T06:24:36.883Z,994.93
2023-07-03T06:25:36.766Z,994.95
2023-07-03T06:26:37.411Z,995.01
2023-07-03T06:27:36.644Z,994.93
2023-07-03T06:28:37.861Z,994.95
2023-07-03T06:29:37.070Z,994.99
2023-07-03T06:30:38.278Z,994.98
2023-07-03T06:31:37.652Z,995.00
2023-07-03T06:32:37.897Z,994.99
2023-07-03T06:33:38.201Z,994.98
2023-07-03T06:34:38.418Z,994.99
2023-07-03T06:35:38.736Z,995.00
2023-07-03T06:36:38.935Z,994.96
2023-07-03T06:37:39.229Z,994.96
2023-07-03T06:38:40.386Z,995.00
2023-07-03T06:39:42.618Z,995.01
2023-07-03T06:40:40.836Z,995.00
2023-07-03T06:41:39.957Z,994.97
2023-07-03T06:42:40.480Z,994.98
2023-07-03T06:43:41.693Z,995.02
2023-07-03T06:44:40.345Z,994.98
2023-07-03T06:45:41.469Z,995.01
2023-07-03T06:46:43.096Z,994.96
2023-07-03T06:47:40.874Z,995.01
2023-07-03T06:48:41.259Z,994.94
2023-07-03T06:49:42.400Z,995.04
2023-07-03T06:50:41.746Z,994.94
2023-07-03T06:51:42.883Z,994.96
2023-07-03T06:52:43.895Z,994.97
2023-07-03T06:53:42.066Z,995.00
2023-07-03T06:54:43.564Z,994.99
2023-07-03T06:55:42.196Z,994.95
2023-07-03T06:56:43.569Z,994.93
2023-07-03T06:57:43.883Z,995.01
2023-07-03T06:58:43.030Z,995.06
2023-07-03T06:59:44.201Z,994.99
2023-07-03T07:00:44.423Z,994.93
2023-07-03T07:01:43.544Z,994.97
2023-07-03T07:02:46.975Z,994.91
2023-07-03T07:04:44.097Z,994.94
2023-07-03T07:05:44.592Z,994.98
2023-07-03T07:06:45.682Z,995.01
2023-07-03T07:07:45.628Z,995.00
2023-07-03T07:08:44.516Z,994.98
2023-07-03T07:09:44.693Z,994.98
2023-07-03T07:10:45.409Z,994.99
2023-07-03T07:11:45.965Z,995.04
2023-07-03T07:12:46.013Z,994.90
2023-07-03T07:13:46.808Z,994.96
2023-07-03T07:14:46.424Z,995.01
2023-07-03T07:15:48.778Z,994.95
2023-07-03T07:16:48.162Z,994.99
2023-07-03T07:17:52.372Z,994.94
2023-07-03T07:18:49.051Z,995.00
2023-07-03T07:19:46.274Z,995.02
2023-07-03T07:20:46.469Z,994.95
2023-07-03T07:21:47.358Z,994.98
2023-07-03T07:22:48.485Z,995.00
2023-07-03T07:23:49.091Z,994.94
2023-07-03T07:24:48.101Z,994.89
2023-07-03T07:25:49.023Z,994.91
2023-07-03T07:26:48.850Z,994.90
2023-07-03T07:27:49.555Z,994.94
2023-07-03T07:28:49.722Z,994.95
2023-07-03T07:29:50.340Z,994.95
2023-07-03T07:30:48.053Z,994.92
2023-07-03T07:31:50.784Z,994.76
2023-07-03T07:32:50.671Z,994.85
2023-07-03T07:33:49.741Z,994.80
2023-07-03T07:34:48.851Z,994.84
2023-07-03T07:35:49.271Z,994.75
2023-07-03T07:36:49.300Z,994.85
2023-07-03T07:37:50.585Z,994.86
2023-07-03T07:38:49.672Z,994.80
2023-07-03T07:39:50.877Z,994.81
2023-07-03T07:40:50.026Z,994.80
2023-07-03T07:41:50.700Z,994.78
2023-07-03T07:42:54.964Z,994.79
2023-07-03T07:43:51.652Z,994.80
2023-07-03T07:44:52.875Z,994.80
2023-07-03T07:45:54.139Z,994.72
2023-07-03T07:46:51.588Z,994.76
2023-07-03T07:47:55.753Z,994.80
2023-07-03T07:48:51.985Z,994.84
2023-07-03T07:49:52.181Z,994.77
2023-07-03T07:50:52.356Z,994.77
2023-07-03T07:51:52.553Z,994.83
2023-07-03T07:52:55.260Z,994.78
2023-07-03T07:53:52.902Z,994.80
2023-07-03T07:54:54.019Z,994.85
2023-07-03T07:55:55.704Z,994.76
2023-07-03T07:56:55.825Z,994.82
2023-07-03T07:57:55.017Z,994.91
2023-07-03T07:58:53.648Z,994.83
2023-07-03T07:59:53.868Z,994.87
2023-07-03T08:00:56.565Z,994.93
2023-07-03T08:01:54.298Z,994.90
2023-07-03T08:02:56.081Z,994.95
2023-07-03T08:03:57.605Z,994.86
2023-07-03T08:04:54.904Z,994.94
2023-07-03T08:05:56.982Z,994.89
2023-07-03T08:06:56.078Z,994.97
2023-07-03T08:07:55.197Z,995.01
2023-07-03T08:08:56.325Z,994.95
2023-07-03T08:09:55.444Z,994.94
2023-07-03T08:10:57.557Z,994.93
2023-07-03T08:11:56.708Z,994.93
2023-07-03T08:12:58.363Z,994.92
2023-07-03T08:13:57.127Z,994.93
2023-07-03T08:14:56.286Z,995.00
2023-07-03T08:15:56.465Z,994.97
2023-07-03T08:16:59.635Z,995.07
2023-07-03T08:17:58.377Z,995.02
2023-07-03T08:18:58.058Z,994.98
2023-07-03T08:19:57.362Z,994.99
2023-07-03T08:20:58.541Z,995.01
2023-07-03T08:21:59.359Z,994.98
2023-07-03T08:22:58.118Z,994.84
2023-07-03T08:23:58.621Z,994.99
2023-07-03T08:24:58.232Z,995.06
2023-07-03T08:26:00.080Z,995.02
2023-07-03T08:27:00.033Z,995.11
2023-07-03T08:27:59.911Z,995.02
2023-07-03T08:29:02.098Z,994.96
2023-07-03T08:30:02.202Z,994.98
2023-07-03T08:30:59.527Z,994.99
2023-07-03T08:31:59.740Z,994.97
2023-07-03T08:33:02.532Z,994.92
2023-07-03T08:34:02.757Z,995.03
2023-07-03T08:38:00.709Z,995.06
2023-07-03T08:39:02.927Z,995.02
2023-07-03T08:40:01.276Z,995.14
2023-07-03T08:41:03.470Z,995.16
2023-07-03T08:42:03.676Z,995.11
2023-07-03T08:43:02.294Z,995.14
2023-07-03T08:44:03.324Z,995.11
2023-07-03T08:45:05.255Z,995.15
2023-07-03T08:46:02.928Z,995.16
2023-07-03T08:47:11.374Z,995.13
2023-07-03T08:48:03.392Z,995.14
2023-07-03T08:49:04.857Z,995.13
2023-07-03T08:50:06.746Z,995.21
2023-07-03T08:51:03.256Z,995.16
2023-07-03T08:52:02.957Z,995.17
2023-07-03T08:53:03.067Z,995.16
2023-07-03T08:54:06.001Z,995.23
2023-07-03T08:55:03.158Z,995.21
2023-07-03T08:56:05.803Z,995.24
2023-07-03T08:57:03.515Z,995.24
2023-07-03T08:58:05.820Z,995.28
2023-07-03T08:59:05.085Z,995.24
2023-07-03T09:00:06.273Z,995.23
2023-07-03T09:01:04.534Z,995.19
2023-07-03T09:02:07.122Z,995.25
2023-07-03T09:03:05.653Z,995.22
2023-07-03T09:04:14.592Z,995.26
2023-07-03T09:05:05.540Z,995.31
2023-07-03T09:06:06.719Z,995.38
2023-07-03T09:07:05.451Z,995.33
2023-07-03T09:08:05.667Z,995.36
2023-07-03T09:09:07.373Z,995.35
2023-07-03T09:10:07.557Z,995.34
2023-07-03T09:11:07.011Z,995.36
2023-07-03T09:12:07.424Z,995.39
2023-07-03T09:13:09.025Z,995.40
2023-07-03T09:14:10.064Z,995.38
2023-07-03T09:15:09.852Z,995.36
2023-07-03T09:16:08.311Z,995.26
2023-07-03T09:17:08.147Z,995.37
2023-07-03T09:18:10.818Z,995.35
2023-07-03T09:19:08.515Z,995.34
2023-07-03T09:20:09.578Z,995.35
2023-07-03T09:21:09.685Z,995.44
2023-07-03T09:22:08.828Z,995.42
2023-07-03T09:23:10.601Z,995.33
2023-07-03T09:24:09.258Z,995.38
2023-07-03T09:25:10.380Z,995.35
2023-07-03T09:26:09.519Z,995.42
2023-07-03T09:27:10.389Z,995.42
2023-07-03T09:28:09.666Z,995.46
2023-07-03T09:29:09.827Z,995.42
2023-07-03T09:30:12.816Z,995.38
2023-07-03T09:31:10.303Z,995.39
2023-07-03T09:32:16.688Z,995.38
2023-07-03T09:33:11.961Z,995.43
2023-07-03T09:34:11.318Z,995.44
2023-07-03T09:35:11.401Z,995.35
2023-07-03T09:36:11.597Z,995.45
2023-07-03T09:37:11.719Z,995.45
2023-07-03T09:38:14.357Z,995.49
2023-07-03T09:39:12.943Z,995.46
2023-07-03T09:40:13.073Z,995.47
2023-07-03T09:41:12.183Z,995.50
2023-07-03T09:42:13.394Z,995.54
2023-07-03T09:43:12.586Z,995.55
2023-07-03T09:44:15.295Z,995.50
2023-07-03T09:45:12.927Z,995.47
2023-07-03T09:46:16.697Z,995.52
2023-07-03T09:47:13.408Z,995.56
2023-07-03T09:48:14.587Z,995.49
2023-07-03T09:49:27.793Z,995.49
2023-07-03T09:50:16.242Z,995.50
2023-07-03T09:51:14.454Z,995.58
2023-07-03T09:52:14.285Z,995.59
2023-07-03T09:53:17.597Z,995.61
2023-07-03T09:54:16.855Z,995.65
2023-07-03T09:55:28.588Z,995.75
2023-07-03T09:56:18.863Z,995.62
2023-07-03T09:57:15.528Z,995.66
2023-07-03T09:58:16.626Z,995.67
2023-07-03T09:59:21.912Z,995.67
2023-07-03T10:00:16.231Z,995.70
2023-07-03T10:03:46.460Z,995.67
2023-07-03T10:06:46.147Z,995.65
2023-07-03T10:07:46.182Z,995.66
2023-07-03T10:08:46.438Z,995.73
2023-07-03T10:11:44.743Z,995.75
2023-07-03T10:12:43.958Z,995.74
2023-07-03T10:13:44.122Z,995.83
2023-07-03T10:14:46.299Z,995.81
2023-07-03T10:15:44.437Z,995.81
2023-07-03T10:16:44.593Z,995.71
2023-07-03T10:17:45.744Z,995.71
2023-07-03T10:18:47.491Z,995.80
2023-07-03T10:19:47.748Z,995.82
2023-07-03T10:20:46.903Z,995.85
2023-07-03T10:21:47.745Z,995.98
2023-07-03T10:22:45.941Z,995.87
2023-07-03T10:23:47.575Z,995.92
2023-07-03T10:24:47.243Z,995.95
2023-07-03T10:25:46.349Z,995.95
2023-07-03T10:26:49.458Z,996.05
2023-07-03T10:27:46.626Z,995.96
2023-07-03T10:28:46.927Z,995.92
2023-07-03T10:29:48.905Z,995.96
2023-07-03T10:30:47.071Z,995.99
2023-07-03T10:31:47.243Z,995.98
2023-07-03T10:32:48.456Z,996.01
2023-07-03T10:33:51.780Z,995.96
2023-07-03T10:34:49.440Z,995.94
2023-07-03T10:35:49.427Z,995.90
2023-07-03T10:36:50.376Z,995.95
2023-07-03T10:37:49.550Z,995.96
2023-07-03T10:38:51.243Z,995.96
2023-07-03T10:39:48.857Z,995.88
2023-07-03T10:40:49.406Z,995.93
2023-07-03T10:41:49.317Z,995.97
2023-07-03T10:42:49.432Z,995.98
2023-07-03T10:43:50.586Z,995.99
2023-07-03T10:44:52.830Z,995.99
2023-07-03T10:45:50.355Z,996.06
2023-07-03T10:46:50.328Z,995.97
2023-07-03T10:47:56.236Z,995.95
2023-07-03T10:48:50.965Z,996.03
2023-07-03T10:49:54.524Z,995.83
2023-07-03T10:50:53.611Z,995.89
2023-07-03T10:51:53.335Z,995.94
2023-07-03T10:52:52.994Z,995.95
2023-07-03T10:53:51.670Z,995.93
2023-07-03T10:54:52.836Z,995.91
2023-07-03T10:55:52.198Z,995.90
2023-07-03T10:56:54.488Z,995.92
2023-07-03T10:57:52.135Z,995.84
2023-07-03T10:58:53.324Z,995.91
2023-07-03T10:59:53.831Z,995.98
2023-07-03T11:01:19.531Z,995.90
2023-07-03T11:02:19.963Z,995.95
2023-07-03T11:03:22.150Z,995.93
2023-07-03T11:04:26.332Z,995.94
2023-07-03T11:05:20.698Z,996.01
2023-07-03T11:06:20.968Z,996.00
2023-07-03T11:07:21.298Z,995.97
2023-07-03T11:08:21.426Z,995.95
2023-07-03T11:09:21.600Z,995.99
2023-07-03T11:10:23.305Z,995.96
2023-07-03T11:11:22.222Z,996.00
2023-07-03T11:12:24.838Z,996.01
2023-07-03T11:13:22.518Z,995.95
2023-07-03T11:14:25.280Z,995.96
2023-07-03T11:15:23.995Z,995.95
2023-07-03T11:16:26.089Z,996.00
2023-07-03T11:17:26.583Z,995.97
2023-07-03T11:20:27.336Z,995.94
2023-07-03T11:23:27.310Z,995.95
2023-07-03T11:24:24.931Z,996.00
2023-07-03T11:25:25.148Z,996.00
2023-07-03T11:28:27.030Z,995.91
2023-07-03T11:29:25.390Z,995.96
2023-07-03T11:30:25.981Z,995.96
2023-07-03T11:31:25.673Z,995.97
2023-07-03T11:32:26.887Z,995.95
2023-07-03T11:36:04.474Z,995.91
2023-07-03T11:37:05.002Z,995.90
2023-07-03T11:40:06.731Z,995.99
2023-07-03T11:41:05.936Z,995.99
2023-07-03T11:44:07.214Z,995.89
2023-07-03T11:45:07.318Z,995.93
2023-07-03T11:46:07.382Z,995.93
2023-07-03T11:47:09.138Z,995.95
2023-07-03T11:48:08.351Z,995.98
2023-07-03T11:49:08.998Z,996.04
2023-07-03T11:50:07.457Z,996.04
2023-07-03T11:51:07.121Z,996.00
2023-07-03T11:52:07.217Z,996.04
2023-07-03T11:53:09.868Z,996.09
2023-07-03T11:54:07.550Z,996.05
2023-07-03T11:55:09.660Z,996.04
2023-07-03T11:56:07.795Z,996.09
2023-07-03T11:57:07.950Z,996.04
2023-07-03T11:58:20.551Z,996.05
2023-07-03T11:59:09.625Z,996.10
2023-07-03T12:00:09.410Z,996.11
2023-07-03T12:01:09.110Z,996.07
2023-07-03T12:02:09.288Z,996.00
2023-07-03T12:03:10.466Z,995.98
2023-07-03T12:04:09.729Z,995.95
2023-07-03T12:05:10.863Z,995.98
2023-07-03T12:06:10.077Z,995.91
2023-07-03T12:07:11.222Z,995.90
2023-07-03T12:08:12.024Z,995.97
2023-07-03T12:09:12.168Z,995.82
2023-07-03T12:10:13.464Z,995.85
2023-07-03T12:11:13.581Z,995.91
2023-07-03T12:12:11.250Z,995.93
2023-07-03T12:13:11.460Z,995.93
2023-07-03T12:14:11.612Z,995.94
2023-07-03T12:15:11.731Z,995.90
2023-07-03T12:16:11.886Z,995.95
2023-07-03T12:17:12.208Z,995.93
2023-07-03T12:18:14.807Z,995.96
2023-07-03T12:19:13.394Z,996.00
2023-07-03T12:20:12.589Z,995.95
2023-07-03T12:21:12.727Z,995.87
2023-07-03T12:22:13.953Z,995.93
2023-07-03T12:23:14.089Z,995.88
2023-07-03T12:24:13.217Z,995.94
2023-07-03T12:25:13.493Z,995.93
2023-07-03T12:26:14.624Z,995.89
2023-07-03T12:27:13.810Z,995.86
2023-07-03T12:28:15.510Z,995.85
2023-07-03T12:29:16.120Z,995.82
2023-07-03T12:30:16.215Z,995.82
2023-07-03T12:31:14.447Z,995.84
2023-07-03T12:32:14.655Z,995.81
2023-07-03T12:33:15.228Z,995.85
2023-07-03T12:34:15.836Z,995.82
2023-07-03T12:35:15.021Z,995.86
2023-07-03T12:36:16.403Z,995.83
2023-07-03T12:37:16.530Z,995.82
2023-07-03T12:38:16.678Z,995.80
2023-07-03T12:39:15.970Z,995.84
2023-07-03T12:40:18.139Z,995.73
2023-07-03T12:41:17.740Z,995.73
2023-07-03T12:42:18.858Z,995.80
2023-07-03T12:43:18.515Z,995.81
2023-07-03T12:44:16.772Z,995.82
2023-07-03T12:45:19.955Z,995.78
2023-07-03T12:46:17.107Z,995.76
2023-07-03T12:47:20.193Z,995.75
2023-07-03T12:48:18.360Z,995.72
2023-07-03T12:49:17.590Z,995.68
2023-07-03T12:50:18.017Z,995.68
2023-07-03T12:51:18.369Z,995.69
2023-07-03T12:52:18.618Z,995.72
2023-07-03T12:53:21.526Z,995.67
2023-07-03T12:54:19.183Z,995.71
2023-07-03T12:55:20.383Z,995.77
2023-07-03T12:56:19.531Z,995.80
2023-07-03T12:57:19.682Z,995.81
2023-07-03T12:58:19.886Z,995.78
2023-07-03T12:59:20.046Z,995.77
2023-07-03T13:00:20.300Z,995.70
2023-07-03T13:01:20.557Z,995.80
2023-07-03T13:02:20.897Z,995.80
2023-07-03T13:03:21.980Z,995.75
2023-07-03T13:04:21.156Z,995.77
2023-07-03T13:05:22.471Z,995.79
2023-07-03T13:06:22.494Z,995.84
2023-07-03T13:07:21.632Z,995.88
2023-07-03T13:08:24.372Z,995.84
2023-07-03T13:09:22.155Z,995.83